Time;durP1;ratioP1;P1;durP2;ratioP2;P2;SDS_P1;SDS_P2;PMS_P1;PMS_P2;Temp;Humidity;BMP_temperature;BMP_pressure;BME280_temperature;BME280_humidity;BME280_pressure;Samples;Min_cycle;Max_cycle;Signal;HPM_P1;HPM_P2
2022/06/22 00:00:26;;;;;;;10.10;9.40;;;14.90;99.90;;;;;;5071068;28;20427;-53
2022/06/22 00:02:54;;;;;;;9.23;8.63;;;14.90;99.90;;;;;;5070285;28;20898;-49
2022/06/22 00:05:38;;;;;;;9.67;8.97;;;14.90;99.90;;;;;;5071004;28;20454;-52
2022/06/22 00:08:07;;;;;;;9.80;9.10;;;14.90;99.90;;;;;;5069961;28;20432;-50
2022/06/22 00:10:44;;;;;;;10.17;9.17;;;14.90;99.90;;;;;;5051031;28;20470;-52
2022/06/22 00:13:19;;;;;;;9.33;8.53;;;14.80;99.90;;;;;;5056721;28;20468;-55
2022/06/22 00:15:51;;;;;;;8.80;8.20;;;14.80;99.90;;;;;;5070636;28;20443;-52
2022/06/22 00:18:39;;;;;;;9.30;8.60;;;14.80;99.90;;;;;;5069960;28;20548;-50
2022/06/22 00:21:23;;;;;;;9.97;9.17;;;14.80;99.90;;;;;;5089247;28;20447;-53
2022/06/22 00:23:52;;;;;;;10.47;9.37;;;14.80;99.90;;;;;;5099646;27;20468;-52
2022/06/22 00:26:24;;;;;;;9.63;8.93;;;14.80;99.90;;;;;;5069615;28;20545;-55
2022/06/22 00:29:05;;;;;;;9.20;8.50;;;14.80;99.90;;;;;;5059025;28;20563;-54
2022/06/22 00:31:30;;;;;;;10.23;9.33;;;14.80;99.90;;;;;;5061006;28;20437;-50
2022/06/22 00:34:11;;;;;;;9.67;8.97;;;14.70;99.90;;;;;;5066489;28;20516;-52
2022/06/22 00:36:42;;;;;;;9.77;9.00;;;14.80;99.90;;;;;;5060866;28;20684;-54
2022/06/22 00:39:26;;;;;;;9.73;9.03;;;14.80;99.90;;;;;;5069312;28;20436;-55
2022/06/22 00:42:00;;;;;;;9.43;8.73;;;14.80;99.90;;;;;;5069795;28;20855;-56
2022/06/22 00:44:29;;;;;;;10.07;9.37;;;14.80;99.90;;;;;;5066517;28;20419;-55
2022/06/22 00:47:04;;;;;;;9.40;8.60;;;14.90;99.90;;;;;;5054806;28;20428;-54
2022/06/22 00:49:31;;;;;;;9.97;9.17;;;14.90;99.90;;;;;;5070973;28;20537;-54
2022/06/22 00:52:05;;;;;;;9.70;8.90;;;14.90;99.90;;;;;;5056757;28;20416;-55
2022/06/22 00:54:33;;;;;;;9.73;8.73;;;14.90;99.90;;;;;;5068803;28;20636;-54
2022/06/22 00:57:09;;;;;;;9.07;8.47;;;14.90;99.90;;;;;;5068439;28;20476;-55
2022/06/22 00:59:54;;;;;;;9.23;8.60;;;14.90;99.90;;;;;;5068891;28;20493;-55
2022/06/22 01:02:28;;;;;;;9.30;8.60;;;14.90;99.90;;;;;;5070013;28;20423;-49
2022/06/22 01:05:06;;;;;;;9.50;8.80;;;14.80;99.90;;;;;;5067735;28;20883;-53
2022/06/22 01:07:34;;;;;;;9.00;8.27;;;14.80;99.90;;;;;;5059438;28;20762;-52
2022/06/22 01:10:08;;;;;;;8.77;8.17;;;14.70;99.90;;;;;;5053035;28;20821;-53
2022/06/22 01:12:41;;;;;;;9.33;8.63;;;14.70;99.90;;;;;;5069477;28;20515;-53
2022/06/22 01:15:31;;;;;;;8.70;8.10;;;14.80;99.90;;;;;;5065294;28;20490;-55
2022/06/22 01:18:05;;;;;;;9.10;8.40;;;14.80;99.90;;;;;;5067801;28;20503;-52
2022/06/22 01:20:55;;;;;;;9.37;8.47;;;14.80;99.90;;;;;;5058585;28;20431;-50
2022/06/22 01:23:58;;;;;;;9.13;8.30;;;14.80;99.90;;;;;;5051848;28;20436;-52
2022/06/22 01:27:08;;;;;;;9.63;8.83;;;14.70;99.90;;;;;;5056074;28;20990;-53
2022/06/22 01:29:35;;;;;;;8.67;8.17;;;14.70;99.90;;;;;;5059684;28;20562;-54
2022/06/22 01:32:06;;;;;;;9.07;8.27;;;14.60;99.90;;;;;;5067960;28;20985;-53
2022/06/22 01:34:35;;;;;;;9.40;8.70;;;14.60;99.90;;;;;;5066064;28;20442;-55
2022/06/22 01:37:04;;;;;;;9.10;8.27;;;14.60;99.90;;;;;;5061812;28;20443;-50
2022/06/22 01:39:30;;;;;;;9.67;8.97;;;14.60;99.90;;;;;;5062515;28;20519;-57
2022/06/22 01:42:15;;;;;;;9.17;8.40;;;14.50;99.90;;;;;;5063680;28;20530;-54
2022/06/22 01:44:51;;;;;;;9.10;8.30;;;14.60;99.90;;;;;;5063127;28;20954;-55
2022/06/22 01:47:47;;;;;;;8.80;8.10;;;14.60;99.90;;;;;;5057092;28;20433;-55
2022/06/22 01:50:37;;;;;;;9.80;9.00;;;14.50;99.90;;;;;;5068039;28;20494;-51
2022/06/22 01:53:16;;;;;;;9.30;8.60;;;14.50;99.90;;;;;;5068623;28;20448;-54
2022/06/22 01:55:49;;;;;;;9.10;8.50;;;14.50;99.90;;;;;;5069316;28;20420;-49
2022/06/22 01:58:15;;;;;;;9.50;8.73;;;14.50;99.90;;;;;;5069111;28;20532;-54
2022/06/22 02:00:43;;;;;;;8.87;8.17;;;14.50;99.90;;;;;;5068531;28;20906;-55
2022/06/22 02:03:18;;;;;;;8.63;7.93;;;14.40;99.90;;;;;;5050148;28;20206;-55
2022/06/22 02:05:58;;;;;;;9.00;8.33;;;14.40;99.90;;;;;;5067788;28;20543;-53
2022/06/22 02:08:32;;;;;;;9.50;8.70;;;14.40;99.90;;;;;;5068725;28;20605;-55
2022/06/22 02:11:20;;;;;;;9.20;8.30;;;14.40;99.90;;;;;;5056585;28;20481;-52
2022/06/22 02:14:00;;;;;;;8.73;8.03;;;14.40;99.90;;;;;;5075597;28;20436;-54
2022/06/22 02:16:33;;;;;;;8.73;8.10;;;14.40;99.90;;;;;;5068966;28;20480;-54
2022/06/22 02:18:58;;;;;;;10.07;9.30;;;14.50;99.90;;;;;;5061239;28;20991;-51
2022/06/22 02:21:31;;;;;;;10.30;9.50;;;14.50;99.90;;;;;;5068117;28;20493;-56
2022/06/22 02:24:18;;;;;;;9.73;9.00;;;14.50;99.90;;;;;;5068190;28;20189;-52
2022/06/22 02:27:04;;;;;;;9.20;8.60;;;14.50;99.90;;;;;;5063251;28;20448;-53
2022/06/22 02:29:37;;;;;;;9.40;8.70;;;14.50;99.90;;;;;;5048611;28;20457;-52
2022/06/22 02:32:10;;;;;;;9.47;8.87;;;14.50;99.90;;;;;;5068766;28;20428;-55
2022/06/22 02:34:39;;;;;;;9.60;8.90;;;14.50;99.90;;;;;;5067746;28;20558;-54
2022/06/22 02:37:08;;;;;;;9.30;8.70;;;14.50;99.90;;;;;;5069241;28;20412;-51
2022/06/22 02:39:38;;;;;;;9.30;8.60;;;14.60;99.90;;;;;;5069275;28;20423;-53
2022/06/22 02:44:49;;;;;;;10.23;9.33;;;14.60;99.90;;;;;;5089190;28;20422;-54
2022/06/22 02:47:29;;;;;;;9.40;8.70;;;14.60;99.90;;;;;;5088315;28;20513;-52
2022/06/22 02:50:23;;;;;;;9.57;8.87;;;14.70;99.90;;;;;;5089122;28;20528;-56
2022/06/22 02:53:17;;;;;;;8.97;8.37;;;14.70;99.90;;;;;;5065973;28;20420;-55
2022/06/22 02:55:43;;;;;;;8.53;7.93;;;14.70;99.90;;;;;;5060510;28;20976;-50
2022/06/22 02:58:36;;;;;;;10.27;9.30;;;14.70;99.90;;;;;;5071324;28;20467;-53
2022/06/22 03:01:12;;;;;;;9.50;8.90;;;14.70;99.90;;;;;;5072175;28;20223;-55
2022/06/22 03:03:41;;;;;;;9.57;8.80;;;14.70;99.90;;;;;;5063866;28;20511;-54
2022/06/22 03:06:11;;;;;;;9.00;8.13;;;14.80;99.90;;;;;;5065759;28;20811;-53
2022/06/22 03:08:38;;;;;;;8.73;8.03;;;14.80;99.90;;;;;;5072487;28;20467;-53
2022/06/22 03:11:07;;;;;;;9.50;8.80;;;14.80;99.90;;;;;;5060054;28;20439;-54
2022/06/22 03:13:46;;;;;;;8.90;8.30;;;14.80;99.90;;;;;;5088016;28;20494;-52
2022/06/22 03:16:31;;;;;;;10.00;9.00;;;14.90;99.90;;;;;;5069584;28;20430;-55
2022/06/22 03:19:01;;;;;;;9.27;8.50;;;14.90;99.90;;;;;;5059032;28;20432;-55
2022/06/22 03:21:28;;;;;;;8.93;8.23;;;14.90;99.90;;;;;;5068722;28;20574;-53
2022/06/22 03:24:11;;;;;;;8.57;7.87;;;14.90;99.90;;;;;;5059258;28;20449;-53
2022/06/22 03:26:42;;;;;;;8.90;8.30;;;15.00;99.90;;;;;;5058439;28;20439;-52
2022/06/22 03:29:27;;;;;;;8.37;7.57;;;15.00;99.90;;;;;;5072000;28;20503;-56
2022/06/22 03:32:09;;;;;;;8.80;8.20;;;15.00;99.90;;;;;;5070368;28;20440;-53
2022/06/22 03:34:41;;;;;;;8.40;7.80;;;15.10;99.90;;;;;;5058346;28;20478;-56
2022/06/22 03:37:27;;;;;;;9.63;9.00;;;15.20;99.90;;;;;;5070194;28;20490;-52
2022/06/22 03:39:58;;;;;;;9.10;8.30;;;15.20;99.90;;;;;;5071724;28;20427;-53
2022/06/22 03:42:46;;;;;;;7.90;7.40;;;15.30;99.90;;;;;;5071386;28;20436;-55
2022/06/22 03:45:38;;;;;;;8.30;7.70;;;15.30;99.90;;;;;;5067407;28;20429;-54
2022/06/22 03:48:13;;;;;;;8.43;7.80;;;15.40;99.90;;;;;;5064533;28;20453;-51
2022/06/22 03:51:06;;;;;;;8.50;7.90;;;15.40;99.90;;;;;;5070198;28;20412;-51
2022/06/22 03:53:48;;;;;;;9.20;8.60;;;15.40;99.90;;;;;;5063560;28;20448;-50
2022/06/22 03:56:21;;;;;;;9.20;8.40;;;15.50;99.90;;;;;;5069526;28;20439;-55
2022/06/22 03:58:50;;;;;;;9.00;8.40;;;15.60;99.90;;;;;;5067503;28;20995;-50
2022/06/22 04:01:17;;;;;;;8.53;7.93;;;15.60;99.90;;;;;;5056337;28;20425;-54
2022/06/22 04:03:43;;;;;;;9.40;8.47;;;15.70;99.90;;;;;;5060846;28;20948;-50
2022/06/22 04:06:40;;;;;;;8.70;8.20;;;15.80;99.90;;;;;;5052318;28;20460;-52
2022/06/22 04:09:13;;;;;;;8.73;8.13;;;15.80;99.90;;;;;;5052545;28;20481;-53
2022/06/22 04:11:51;;;;;;;8.20;7.60;;;15.80;99.90;;;;;;5076352;28;20496;-52
2022/06/22 04:14:25;;;;;;;8.93;8.33;;;15.90;99.90;;;;;;5070561;28;20441;-53
2022/06/22 04:16:55;;;;;;;8.37;7.70;;;15.90;99.90;;;;;;5057383;28;20562;-53
2022/06/22 04:19:50;;;;;;;8.50;7.90;;;15.90;99.90;;;;;;5061861;28;20537;-50
2022/06/22 04:22:20;;;;;;;8.50;7.90;;;16.00;99.90;;;;;;5051481;28;20448;-51
2022/06/22 04:24:53;;;;;;;8.20;7.60;;;16.10;99.90;;;;;;5061876;28;20426;-51
2022/06/22 04:27:21;;;;;;;8.40;7.80;;;16.20;99.90;;;;;;5052820;28;20436;-49
2022/06/22 04:29:56;;;;;;;9.10;8.40;;;16.30;99.90;;;;;;5061312;28;20564;-53
2022/06/22 04:32:37;;;;;;;8.13;7.63;;;16.30;99.90;;;;;;5045966;28;20930;-53
2022/06/22 04:35:20;;;;;;;8.90;8.30;;;16.40;99.90;;;;;;5061274;28;20931;-52
2022/06/22 04:38:03;;;;;;;8.70;8.00;;;16.50;99.90;;;;;;5056674;28;20449;-54
2022/06/22 04:40:47;;;;;;;8.20;7.60;;;16.50;99.90;;;;;;5053082;28;20441;-54
2022/06/22 04:43:13;;;;;;;8.27;7.70;;;16.60;99.90;;;;;;5066072;28;20900;-52
2022/06/22 04:45:42;;;;;;;9.13;8.07;;;16.60;99.90;;;;;;5070511;28;20419;-53
2022/06/22 04:48:14;;;;;;;9.53;8.63;;;16.80;99.90;;;;;;5063305;28;20439;-50
2022/06/22 04:50:42;;;;;;;8.73;8.13;;;16.90;99.90;;;;;;5069164;28;20407;-55
2022/06/22 04:53:18;;;;;;;8.73;8.00;;;17.00;99.90;;;;;;5064718;28;20963;-52
2022/06/22 04:55:44;;;;;;;7.80;7.27;;;17.10;99.90;;;;;;5057733;28;20419;-52
2022/06/22 04:58:35;;;;;;;8.47;7.83;;;17.20;99.90;;;;;;5063747;28;20816;-50
2022/06/22 05:01:03;;;;;;;9.00;7.90;;;17.40;99.90;;;;;;5068857;28;21328;-51
2022/06/22 05:03:29;;;;;;;8.23;7.63;;;17.60;99.90;;;;;;5070255;28;20797;-54
2022/06/22 05:05:59;;;;;;;7.70;7.20;;;17.70;99.90;;;;;;5056624;28;20435;-49
2022/06/22 05:08:44;;;;;;;7.60;7.10;;;17.80;99.90;;;;;;5062874;28;20456;-52
2022/06/22 05:11:17;;;;;;;7.17;6.70;;;18.00;99.90;;;;;;5065995;28;20419;-53
2022/06/22 05:13:47;;;;;;;7.60;6.80;;;18.00;99.90;;;;;;5069815;28;20427;-50
2022/06/22 05:16:21;;;;;;;7.67;7.17;;;18.10;99.30;;;;;;5066310;28;20429;-54
2022/06/22 05:18:49;;;;;;;7.30;6.80;;;18.20;98.40;;;;;;5057928;28;20421;-51
2022/06/22 05:21:40;;;;;;;6.60;6.20;;;18.30;97.50;;;;;;5072979;28;20502;-54
2022/06/22 05:24:15;;;;;;;6.97;6.53;;;18.30;96.90;;;;;;5066632;28;20806;-50
2022/06/22 05:26:41;;;;;;;7.23;6.53;;;18.30;96.80;;;;;;5066910;28;20463;-52
2022/06/22 05:29:10;;;;;;;7.23;6.57;;;18.40;96.30;;;;;;5069116;28;20502;-53
2022/06/22 05:31:42;;;;;;;6.80;6.30;;;18.60;96.00;;;;;;5068381;28;20428;-53
2022/06/22 05:34:14;;;;;;;6.97;6.50;;;18.80;95.80;;;;;;5050876;28;20773;-52
2022/06/22 05:36:44;;;;;;;7.07;6.57;;;18.90;94.70;;;;;;5060867;28;20823;-55
2022/06/22 05:39:10;;;;;;;6.50;6.10;;;19.10;94.50;;;;;;5052454;28;20474;-54
2022/06/22 05:41:39;;;;;;;6.40;5.90;;;19.20;93.70;;;;;;5060621;28;20447;-53
2022/06/22 05:44:11;;;;;;;6.77;6.37;;;19.20;93.00;;;;;;5054769;28;20280;-56
2022/06/22 05:46:39;;;;;;;6.67;6.17;;;19.20;92.80;;;;;;5052892;28;20456;-56
2022/06/22 05:49:15;;;;;;;7.30;6.90;;;19.30;92.60;;;;;;5061503;28;20554;-55
2022/06/22 05:51:58;;;;;;;6.70;6.30;;;19.40;91.80;;;;;;5069354;28;20419;-54
2022/06/22 05:54:54;;;;;;;6.77;6.07;;;19.30;90.80;;;;;;5063584;28;20929;-54
2022/06/22 05:57:42;;;;;;;6.83;6.33;;;19.50;90.50;;;;;;5048220;28;20456;-56
2022/06/22 06:00:11;;;;;;;6.47;5.97;;;19.70;89.80;;;;;;5058296;28;20420;-52
2022/06/22 06:03:06;;;;;;;6.30;5.80;;;19.80;89.10;;;;;;5067752;28;20492;-54
2022/06/22 06:05:38;;;;;;;5.70;5.30;;;20.00;87.10;;;;;;5068697;28;20434;-54
2022/06/22 06:08:11;;;;;;;6.60;6.10;;;20.10;86.50;;;;;;5054182;28;20902;-55
2022/06/22 06:10:42;;;;;;;6.30;5.90;;;20.30;85.00;;;;;;5068035;28;20859;-56
2022/06/22 06:13:19;;;;;;;6.63;6.03;;;20.40;83.50;;;;;;5063589;28;20914;-54
2022/06/22 06:15:46;;;;;;;6.30;5.90;;;20.40;83.40;;;;;;5053871;28;20770;-54
2022/06/22 06:18:19;;;;;;;6.80;6.40;;;20.50;83.00;;;;;;5055306;28;20477;-54
2022/06/22 06:20:49;;;;;;;6.23;5.93;;;20.40;81.30;;;;;;5053244;28;20432;-54
2022/06/22 06:23:26;;;;;;;6.43;6.03;;;20.60;81.10;;;;;;5062967;28;20416;-52
2022/06/22 06:29:03;;;;;;;6.10;5.70;;;20.80;79.30;;;;;;5067693;28;20531;-55
2022/06/22 06:32:09;;;;;;;6.60;6.20;;;20.90;78.50;;;;;;5069882;28;20432;-55
2022/06/22 06:34:41;;;;;;;6.07;5.70;;;20.90;78.20;;;;;;5068517;28;20423;-55
2022/06/22 06:37:13;;;;;;;6.17;5.77;;;21.10;77.50;;;;;;5071085;28;20920;-53
2022/06/22 06:39:44;;;;;;;6.60;6.17;;;21.40;75.90;;;;;;5067821;28;20486;-54
2022/06/22 06:42:22;;;;;;;6.77;6.27;;;21.60;74.60;;;;;;5070659;28;20434;-56
2022/06/22 06:44:49;;;;;;;6.13;5.63;;;21.60;73.20;;;;;;5052711;28;20479;-52
2022/06/22 06:47:24;;;;;;;6.07;5.47;;;21.50;73.20;;;;;;5059074;28;20478;-53
2022/06/22 06:49:55;;;;;;;6.37;6.07;;;21.70;73.70;;;;;;5071980;28;20548;-55
2022/06/22 06:52:43;;;;;;;5.67;5.17;;;21.90;73.40;;;;;;5070327;28;20505;-53
2022/06/22 06:55:19;;;;;;;6.17;5.77;;;22.10;72.70;;;;;;5071968;28;20840;-51
2022/06/22 06:57:57;;;;;;;6.07;5.67;;;22.30;71.20;;;;;;5060950;28;20815;-53
2022/06/22 07:00:23;;;;;;;6.10;5.60;;;22.50;70.80;;;;;;5058056;28;20453;-54
2022/06/22 07:02:48;;;;;;;6.40;5.83;;;22.60;70.30;;;;;;5070980;28;20459;-54
2022/06/22 07:05:18;;;;;;;5.97;5.57;;;22.60;68.40;;;;;;5072071;28;20464;-53
2022/06/22 07:08:10;;;;;;;5.80;5.50;;;22.70;67.50;;;;;;5065529;28;20186;-53
2022/06/22 07:10:52;;;;;;;6.23;5.80;;;22.80;66.10;;;;;;5059186;28;20422;-53
2022/06/22 07:13:31;;;;;;;5.47;4.97;;;22.90;65.70;;;;;;5070470;28;20435;-51
2022/06/22 07:16:01;;;;;;;5.50;5.20;;;23.00;64.00;;;;;;5071679;28;20395;-53
2022/06/22 07:18:32;;;;;;;6.37;5.97;;;22.90;62.50;;;;;;5070948;28;20889;-54
2022/06/22 07:21:16;;;;;;;6.13;5.73;;;23.10;62.60;;;;;;5071120;28;20880;-52
2022/06/22 07:23:50;;;;;;;5.37;5.07;;;23.20;62.10;;;;;;5070649;28;20427;-52
2022/06/22 07:26:41;;;;;;;5.30;4.90;;;23.20;62.00;;;;;;5081618;28;20501;-54
2022/06/22 07:29:22;;;;;;;5.93;5.60;;;23.30;60.30;;;;;;5073267;28;21253;-51
2022/06/22 07:32:03;;;;;;;5.77;5.40;;;23.40;59.00;;;;;;5077985;28;20494;-55
2022/06/22 07:34:39;;;;;;;5.90;5.60;;;23.50;58.90;;;;;;5074127;28;20427;-53
2022/06/22 07:37:16;;;;;;;5.67;5.27;;;23.60;59.10;;;;;;5070288;28;20593;-55
2022/06/22 07:39:55;;;;;;;6.07;5.67;;;23.80;58.10;;;;;;5069774;28;20442;-52
2022/06/22 07:42:21;;;;;;;6.00;5.70;;;24.10;57.50;;;;;;5061687;28;20443;-52
2022/06/22 07:44:47;;;;;;;5.10;4.80;;;24.50;56.30;;;;;;5070284;28;20903;-54
2022/06/22 07:47:24;;;;;;;5.83;5.33;;;24.50;54.60;;;;;;5070627;28;20433;-54
2022/06/22 07:49:59;;;;;;;6.00;5.70;;;24.70;54.80;;;;;;5063718;28;20299;-54
2022/06/22 07:52:30;;;;;;;4.93;4.63;;;24.90;53.10;;;;;;5050765;28;20499;-54
2022/06/22 07:55:14;;;;;;;5.87;5.57;;;25.10;53.30;;;;;;5059340;28;20476;-53
2022/06/22 07:57:58;;;;;;;5.97;5.57;;;25.10;52.00;;;;;;5050705;28;20829;-54
2022/06/22 08:00:25;;;;;;;6.30;5.90;;;25.20;52.20;;;;;;5063092;28;20429;-52
2022/06/22 08:03:19;;;;;;;5.70;5.40;;;25.10;51.40;;;;;;5050713;28;20423;-53
2022/06/22 08:05:48;;;;;;;5.37;4.97;;;25.20;51.20;;;;;;5064085;28;20461;-54
2022/06/22 08:08:26;;;;;;;6.00;5.70;;;25.20;51.00;;;;;;5050799;28;20424;-52
2022/06/22 08:11:18;;;;;;;6.40;6.10;;;25.30;50.70;;;;;;5058587;28;20441;-53
2022/06/22 08:13:52;;;;;;;6.20;5.90;;;25.40;50.40;;;;;;5054616;28;20920;-55
2022/06/22 08:16:25;;;;;;;6.17;5.77;;;25.50;50.70;;;;;;5057676;28;20445;-53
2022/06/22 08:18:50;;;;;;;5.77;5.47;;;25.80;50.20;;;;;;5054388;28;20415;-53
2022/06/22 08:21:18;;;;;;;6.03;5.63;;;25.90;49.70;;;;;;5069351;28;20451;-53
2022/06/22 08:23:45;;;;;;;6.20;5.70;;;26.00;49.50;;;;;;5069967;28;20903;-48
2022/06/22 08:26:16;;;;;;;6.23;5.80;;;26.40;49.70;;;;;;5070015;28;20442;-53
2022/06/22 08:28:42;;;;;;;5.67;5.27;;;26.50;48.00;;;;;;5070427;28;21164;-55
2022/06/22 08:31:08;;;;;;;5.87;5.53;;;26.60;48.40;;;;;;5066610;28;20432;-54
2022/06/22 08:33:52;;;;;;;5.87;5.43;;;26.70;47.80;;;;;;5050711;28;20194;-53
2022/06/22 08:36:24;;;;;;;5.93;5.63;;;26.80;46.30;;;;;;5057996;28;20450;-54
2022/06/22 08:39:05;;;;;;;6.00;5.60;;;26.30;45.10;;;;;;5070053;28;20454;-54
2022/06/22 08:42:02;;;;;;;5.47;5.10;;;26.30;46.00;;;;;;5066257;28;20426;-53
2022/06/22 08:44:39;;;;;;;5.70;5.30;;;26.30;44.90;;;;;;5069239;28;21301;-55
2022/06/22 08:47:13;;;;;;;6.23;5.83;;;26.30;45.70;;;;;;5064556;28;20438;-53
2022/06/22 08:49:57;;;;;;;5.50;5.20;;;26.50;44.60;;;;;;5051734;28;20506;-56
2022/06/22 08:52:54;;;;;;;5.67;5.10;;;26.70;44.40;;;;;;5068197;28;20438;-52
2022/06/22 08:55:47;;;;;;;6.73;6.10;;;26.90;43.50;;;;;;5065879;28;20407;-56
2022/06/22 08:58:57;;;;;;;5.83;5.53;;;26.90;42.40;;;;;;5061150;28;20515;-55
2022/06/22 09:01:49;;;;;;;5.47;5.17;;;26.90;42.20;;;;;;5061176;28;20423;-56
2022/06/22 09:04:34;;;;;;;5.53;5.13;;;27.00;41.60;;;;;;5062792;28;20447;-54
2022/06/22 09:07:29;;;;;;;6.27;5.67;;;27.10;41.70;;;;;;5067349;28;20950;-55
2022/06/22 09:10:06;;;;;;;6.30;5.90;;;27.00;40.80;;;;;;5066688;28;20490;-54
2022/06/22 09:12:53;;;;;;;5.77;5.27;;;27.00;41.50;;;;;;5065330;28;20443;-56
2022/06/22 09:15:33;;;;;;;5.63;5.23;;;27.20;41.10;;;;;;5063493;28;21504;-55
2022/06/22 09:18:18;;;;;;;6.53;6.13;;;27.60;39.80;;;;;;5067230;28;20480;-53
2022/06/22 09:21:05;;;;;;;5.60;5.20;;;27.70;37.60;;;;;;5059225;28;20467;-54
2022/06/22 09:23:48;;;;;;;5.97;5.57;;;28.10;37.50;;;;;;5060501;28;20447;-54
2022/06/22 09:26:34;;;;;;;5.50;5.20;;;28.50;36.50;;;;;;5069544;28;20867;-53
2022/06/22 09:29:05;;;;;;;5.70;5.40;;;28.60;36.40;;;;;;5068225;28;20478;-53
2022/06/22 09:31:46;;;;;;;5.27;4.97;;;29.10;35.60;;;;;;5069532;28;20422;-53
2022/06/22 09:34:21;;;;;;;5.70;5.40;;;29.40;35.80;;;;;;5056412;28;20791;-56
2022/06/22 09:37:03;;;;;;;6.33;5.97;;;29.50;32.80;;;;;;5069588;28;21225;-52
2022/06/22 09:40:07;;;;;;;5.93;5.53;;;29.40;33.00;;;;;;5068319;28;20906;-56
2022/06/22 09:42:51;;;;;;;6.03;5.73;;;29.70;33.10;;;;;;5065245;28;20462;-55
2022/06/22 09:45:43;;;;;;;4.87;4.63;;;29.80;31.70;;;;;;5061191;28;20448;-51
2022/06/22 09:48:44;;;;;;;5.73;5.43;;;30.00;31.70;;;;;;5063725;28;20523;-55
2022/06/22 09:52:06;;;;;;;6.03;5.53;;;29.80;31.50;;;;;;5066702;28;20959;-55
2022/06/22 09:57:59;;;;;;;5.40;5.17;;;30.40;29.90;;;;;;5055981;28;20555;-54
2022/06/22 10:01:04;;;;;;;5.43;5.13;;;31.10;30.20;;;;;;5069471;28;20408;-53
2022/06/22 10:03:51;;;;;;;6.03;5.63;;;31.80;29.30;;;;;;5065514;28;20475;-55
2022/06/22 10:06:39;;;;;;;6.47;6.07;;;32.20;27.80;;;;;;5048904;28;20929;-53
2022/06/22 10:09:23;;;;;;;5.83;5.53;;;32.60;28.10;;;;;;5064627;28;20456;-56
2022/06/22 10:12:02;;;;;;;6.27;5.70;;;33.60;27.30;;;;;;5068324;28;20439;-54
2022/06/22 10:14:34;;;;;;;5.90;5.30;;;34.10;25.80;;;;;;5066909;28;20444;-56
2022/06/22 10:17:25;;;;;;;6.00;5.70;;;34.50;24.70;;;;;;5055015;28;20427;-56
2022/06/22 10:20:23;;;;;;;5.80;5.50;;;34.70;23.70;;;;;;5064668;28;20994;-48
2022/06/22 10:23:17;;;;;;;5.90;5.53;;;35.30;23.20;;;;;;5056241;28;20439;-54
2022/06/22 10:26:11;;;;;;;6.30;5.80;;;35.80;21.20;;;;;;5061246;28;20408;-53
2022/06/22 10:29:04;;;;;;;5.40;5.03;;;36.20;20.10;;;;;;5064196;28;20472;-54
2022/06/22 10:32:06;;;;;;;6.10;5.70;;;36.10;19.80;;;;;;5068685;28;20448;-53
2022/06/22 10:34:40;;;;;;;5.73;5.43;;;36.10;20.00;;;;;;5066517;28;20811;-51
2022/06/22 10:37:18;;;;;;;5.20;4.90;;;36.00;19.40;;;;;;5069048;28;20490;-53
2022/06/22 10:39:46;;;;;;;5.33;5.13;;;36.40;18.40;;;;;;5059805;28;20437;-54
2022/06/22 10:45:39;;;;;;;5.50;5.30;;;36.80;19.00;;;;;;5055669;28;20881;-56
2022/06/22 10:48:16;;;;;;;5.80;5.50;;;37.50;16.30;;;;;;5057986;28;20501;-56
2022/06/22 10:50:58;;;;;;;5.53;5.20;;;38.00;15.60;;;;;;5062609;28;20433;-55
2022/06/22 10:53:33;;;;;;;5.43;5.13;;;38.20;15.40;;;;;;5063990;28;20431;-53
2022/06/22 10:56:26;;;;;;;5.77;5.40;;;38.30;14.70;;;;;;5065784;28;20487;-55
2022/06/22 10:59:06;;;;;;;6.20;5.83;;;37.90;15.10;;;;;;5063900;28;20946;-54
2022/06/22 11:01:50;;;;;;;5.23;4.93;;;38.00;16.10;;;;;;5049386;28;20848;-56
2022/06/22 11:04:34;;;;;;;5.83;5.53;;;38.20;15.70;;;;;;5065256;28;20450;-55
2022/06/22 11:07:37;;;;;;;5.90;5.63;;;38.00;15.40;;;;;;5067887;28;20419;-52
2022/06/22 11:10:25;;;;;;;6.03;5.73;;;37.90;16.10;;;;;;5049526;28;20915;-54
2022/06/22 11:13:12;;;;;;;6.00;5.70;;;36.70;16.60;;;;;;5054456;28;20448;-53
2022/06/22 11:15:58;;;;;;;6.10;5.70;;;36.50;16.50;;;;;;5067944;28;20536;-52
2022/06/22 11:18:50;;;;;;;5.40;5.10;;;36.60;17.10;;;;;;5064427;28;20958;-54
2022/06/22 11:21:24;;;;;;;5.90;5.50;;;36.60;16.50;;;;;;5070980;28;20956;-53
2022/06/22 11:23:59;;;;;;;5.80;5.50;;;36.10;16.20;;;;;;5071244;28;21257;-54
2022/06/22 11:33:18;;;;;;;6.33;5.93;;;35.00;18.10;;;;;;5070617;28;20503;-55
2022/06/22 11:36:12;;;;;;;6.30;6.00;;;34.30;18.90;;;;;;5049044;28;20444;-53
2022/06/22 11:39:05;;;;;;;6.23;5.73;;;34.10;19.00;;;;;;5071169;28;21240;-56
2022/06/22 11:41:59;;;;;;;5.40;5.20;;;34.30;18.90;;;;;;5059945;28;20419;-55
2022/06/22 11:48:19;;;;;;;6.07;5.70;;;34.40;18.10;;;;;;5034641;28;20489;-56
2022/06/22 11:51:03;;;;;;;5.93;5.47;;;34.80;17.20;;;;;;5064960;28;20950;-55
2022/06/22 11:54:19;;;;;;;5.57;5.30;;;35.80;17.50;;;;;;5066782;28;20439;-55
2022/06/22 11:57:25;;;;;;;5.90;5.60;;;37.00;17.50;;;;;;5056361;28;20456;-53
2022/06/22 12:00:28;;;;;;;5.63;5.33;;;38.10;16.00;;;;;;5069565;28;21099;-50
2022/06/22 12:03:18;;;;;;;5.70;5.30;;;38.20;15.00;;;;;;5063217;28;20407;-53
2022/06/22 12:05:47;;;;;;;5.30;5.00;;;39.00;14.30;;;;;;5070048;28;20837;-55
2022/06/22 12:08:46;;;;;;;4.73;4.53;;;39.20;14.00;;;;;;5071254;28;20480;-54
2022/06/22 12:11:35;;;;;;;5.80;5.50;;;38.80;15.00;;;;;;5063509;28;20456;-52
2022/06/22 12:17:26;;;;;;;5.97;5.67;;;39.80;13.30;;;;;;5068504;28;20501;-53
2022/06/22 12:20:04;;;;;;;6.00;5.70;;;40.00;13.40;;;;;;5070534;28;21034;-55
2022/06/22 12:22:54;;;;;;;5.90;5.60;;;40.50;13.10;;;;;;5057322;28;20444;-55
2022/06/22 12:25:42;;;;;;;5.67;5.47;;;40.40;13.60;;;;;;5059668;28;20890;-52
2022/06/22 12:28:59;;;;;;;6.30;5.90;;;40.40;12.70;;;;;;5057985;28;20960;-53
2022/06/22 12:31:30;;;;;;;6.23;5.97;;;40.60;12.40;;;;;;5037516;28;20444;-55
2022/06/22 12:34:05;;;;;;;5.60;5.30;;;40.70;12.30;;;;;;5070327;28;20415;-51
2022/06/22 12:36:48;;;;;;;5.93;5.63;;;40.50;11.30;;;;;;5059733;28;20431;-51
2022/06/22 12:39:32;;;;;;;6.50;5.83;;;39.80;12.00;;;;;;5070459;28;20468;-56
2022/06/22 12:42:30;;;;;;;5.80;5.50;;;39.30;13.00;;;;;;5065705;28;20444;-55
2022/06/22 12:45:14;;;;;;;6.20;5.80;;;39.30;13.50;;;;;;5056913;28;20795;-55
2022/06/22 12:48:17;;;;;;;5.80;5.40;;;39.00;12.50;;;;;;5066351;28;20443;-54
2022/06/22 12:51:10;;;;;;;5.80;5.50;;;39.10;13.40;;;;;;5064040;28;20416;-53
2022/06/22 12:53:37;;;;;;;5.70;5.40;;;40.00;11.70;;;;;;5067068;28;20435;-55
2022/06/22 12:56:11;;;;;;;6.27;5.87;;;40.10;12.20;;;;;;5070389;28;20776;-51
2022/06/22 12:58:55;;;;;;;6.17;5.87;;;39.60;12.30;;;;;;5067847;28;20834;-53
2022/06/22 13:01:22;;;;;;;6.40;6.00;;;39.10;13.00;;;;;;5058234;28;20918;-55
2022/06/22 13:03:54;;;;;;;6.70;6.30;;;38.30;13.80;;;;;;5060824;28;20435;-51
2022/06/22 13:06:22;;;;;;;6.77;6.17;;;37.80;14.10;;;;;;5069881;28;20416;-54
2022/06/22 13:08:47;;;;;;;7.00;6.60;;;37.30;14.20;;;;;;5067794;28;20452;-56
2022/06/22 13:11:19;;;;;;;5.90;5.60;;;36.80;15.60;;;;;;5070269;28;20428;-55
2022/06/22 13:13:59;;;;;;;6.90;6.50;;;36.40;15.60;;;;;;5068951;28;20224;-56
2022/06/22 13:16:31;;;;;;;6.80;6.40;;;36.50;15.40;;;;;;5069911;28;20463;-56
2022/06/22 13:19:02;;;;;;;6.03;5.63;;;36.10;15.80;;;;;;5067859;28;20455;-50
2022/06/22 13:21:54;;;;;;;6.60;6.20;;;35.70;17.00;;;;;;5063927;28;20441;-56
2022/06/22 13:24:38;;;;;;;6.63;6.33;;;35.60;17.50;;;;;;5057115;28;20490;-53
2022/06/22 13:27:26;;;;;;;6.97;6.50;;;35.70;17.20;;;;;;5066104;28;20828;-55
2022/06/22 13:30:15;;;;;;;6.70;6.40;;;36.00;16.70;;;;;;5068611;28;20446;-54
2022/06/22 13:32:45;;;;;;;6.80;6.20;;;36.50;15.60;;;;;;5064926;28;20448;-51
2022/06/22 13:35:29;;;;;;;6.47;6.00;;;36.90;15.00;;;;;;5051771;28;20439;-55
2022/06/22 13:38:21;;;;;;;6.50;6.00;;;37.50;14.50;;;;;;5069608;28;20441;-54
2022/06/22 13:41:11;;;;;;;6.00;5.60;;;38.40;14.70;;;;;;5057595;28;20477;-55
2022/06/22 13:44:11;;;;;;;6.80;6.40;;;39.60;13.30;;;;;;5066132;28;20489;-55
2022/06/22 13:46:48;;;;;;;7.00;6.40;;;40.50;12.90;;;;;;5064836;28;20757;-55
2022/06/22 13:49:25;;;;;;;6.83;6.33;;;41.10;11.80;;;;;;5067711;28;20434;-54
2022/06/22 13:52:15;;;;;;;6.60;6.30;;;41.30;11.20;;;;;;5050233;28;20431;-56
2022/06/22 13:55:17;;;;;;;6.60;6.30;;;40.40;11.00;;;;;;5066298;28;20451;-54
2022/06/22 13:57:57;;;;;;;6.20;5.90;;;39.00;12.20;;;;;;5069199;28;20459;-56
2022/06/22 14:00:43;;;;;;;7.53;7.20;;;38.10;12.90;;;;;;5074904;28;20550;-54
2022/06/22 14:03:30;;;;;;;6.50;6.20;;;37.80;13.30;;;;;;5068697;28;20517;-55
2022/06/22 14:06:00;;;;;;;7.53;7.10;;;37.20;13.90;;;;;;5067790;28;20439;-51
2022/06/22 14:08:39;;;;;;;7.13;6.73;;;36.20;15.10;;;;;;5056320;28;20419;-53
2022/06/22 14:11:31;;;;;;;6.93;6.60;;;35.60;15.80;;;;;;5052713;28;20432;-55
2022/06/22 14:14:22;;;;;;;7.57;7.17;;;35.30;16.50;;;;;;5050906;28;20440;-51